createdAt,value
2023-03-07T00:00:16.946Z,55.00
2023-03-07T00:02:43.769Z,59.07
2023-03-07T00:05:10.626Z,57.00
2023-03-07T00:07:39.618Z,59.53
2023-03-07T00:10:07.013Z,59.50
2023-03-07T00:12:33.886Z,59.23
2023-03-07T00:15:00.686Z,57.63
2023-03-07T00:17:27.451Z,53.53
2023-03-07T00:19:54.221Z,52.23
2023-03-07T00:22:21.177Z,49.37
2023-03-07T00:24:51.061Z,51.03
2023-03-07T00:27:17.897Z,51.07
2023-03-07T00:29:44.698Z,47.40
2023-03-07T00:32:13.860Z,48.00
2023-03-07T00:34:40.802Z,53.77
2023-03-07T00:37:09.878Z,46.97
2023-03-07T00:39:36.659Z,48.00
2023-03-07T00:42:05.753Z,52.03
2023-03-07T00:44:32.943Z,48.10
2023-03-07T00:47:02.548Z,51.90
2023-03-07T00:49:29.353Z,57.17
2023-03-07T00:51:56.139Z,56.67
2023-03-07T00:54:22.911Z,57.37
2023-03-07T00:56:49.789Z,55.10
2023-03-07T00:59:16.589Z,50.17
2023-03-07T01:01:45.929Z,53.47
2023-03-07T01:04:12.715Z,51.67
2023-03-07T01:06:39.544Z,55.33
2023-03-07T01:09:10.079Z,56.63
2023-03-07T01:11:37.081Z,54.67
2023-03-07T01:14:04.915Z,53.27
2023-03-07T01:16:36.445Z,52.27
2023-03-07T01:19:07.250Z,50.13
2023-03-07T01:21:38.193Z,49.83
2023-03-07T01:24:07.994Z,49.47
2023-03-07T01:26:35.040Z,48.80
2023-03-07T01:29:05.393Z,47.00
2023-03-07T01:31:32.649Z,49.43
2023-03-07T01:33:59.746Z,47.80
2023-03-07T01:36:31.345Z,50.33
2023-03-07T01:39:02.849Z,46.73
2023-03-07T01:41:32.484Z,41.23
2023-03-07T01:44:10.580Z,42.57
2023-03-07T01:46:58.147Z,42.50
2023-03-07T01:49:42.647Z,44.90
2023-03-07T01:52:12.048Z,41.93
2023-03-07T01:54:48.758Z,40.93
2023-03-07T01:57:17.723Z,40.37
2023-03-07T01:59:47.398Z,36.13
2023-03-07T02:02:17.258Z,40.23
2023-03-07T02:04:50.112Z,35.13
2023-03-07T02:07:17.760Z,36.07
2023-03-07T02:09:44.545Z,37.47
2023-03-07T02:12:11.510Z,39.43
2023-03-07T02:14:38.264Z,40.83
2023-03-07T02:17:08.113Z,43.17
2023-03-07T02:19:34.876Z,39.80
2023-03-07T02:22:17.715Z,40.00
2023-03-07T02:24:58.452Z,41.03
2023-03-07T02:27:27.765Z,44.57
2023-03-07T02:29:54.532Z,43.83
2023-03-07T02:32:21.505Z,44.87
2023-03-07T02:34:48.409Z,45.27
2023-03-07T02:37:35.684Z,50.77
2023-03-07T02:40:06.098Z,57.47
2023-03-07T02:42:33.468Z,51.10
2023-03-07T02:45:01.541Z,52.37
2023-03-07T02:47:30.466Z,64.67
2023-03-07T02:49:59.736Z,56.03
2023-03-07T02:52:28.651Z,57.37
2023-03-07T02:54:56.020Z,64.70
2023-03-07T02:57:22.867Z,65.37
2023-03-07T02:59:49.708Z,63.63
2023-03-07T03:02:16.549Z,68.30
2023-03-07T03:04:43.419Z,68.03
2023-03-07T03:07:10.330Z,64.73
2023-03-07T03:09:41.453Z,69.97
2023-03-07T03:12:10.786Z,71.93
2023-03-07T03:14:40.194Z,71.63
2023-03-07T03:17:06.993Z,72.93
2023-03-07T03:19:33.837Z,80.97
2023-03-07T03:22:00.612Z,86.50
2023-03-07T03:24:27.398Z,91.20
2023-03-07T03:26:58.595Z,88.10
2023-03-07T03:29:28.168Z,103.17
2023-03-07T03:31:55.721Z,90.57
2023-03-07T03:34:22.484Z,93.20
2023-03-07T03:36:49.269Z,100.80
2023-03-07T03:39:16.160Z,100.80
2023-03-07T03:41:45.451Z,99.43
2023-03-07T03:44:12.237Z,106.90
2023-03-07T03:46:41.257Z,118.27
2023-03-07T03:49:08.096Z,120.27
2023-03-07T03:51:34.876Z,117.80
2023-03-07T03:54:01.704Z,115.83
2023-03-07T03:56:29.668Z,123.77
2023-03-07T03:58:56.901Z,130.33
2023-03-07T04:01:27.141Z,122.13
2023-03-07T04:03:56.523Z,116.53
2023-03-07T04:06:24.966Z,125.10
2023-03-07T04:08:54.654Z,114.07
2023-03-07T04:11:21.965Z,117.13
2023-03-07T04:13:53.497Z,103.47
2023-03-07T04:16:22.518Z,108.07
2023-03-07T04:18:52.656Z,99.77
2023-03-07T04:21:26.568Z,102.13
2023-03-07T04:23:57.162Z,98.77
2023-03-07T04:26:26.183Z,94.53
2023-03-07T04:28:57.557Z,97.77
2023-03-07T04:31:25.976Z,94.27
2023-03-07T04:33:58.926Z,89.27
2023-03-07T04:36:25.803Z,93.37
2023-03-07T04:38:52.624Z,80.50
2023-03-07T04:41:23.637Z,95.83
2023-03-07T04:43:50.488Z,78.17
2023-03-07T04:46:17.592Z,79.33
2023-03-07T04:48:47.200Z,76.33
2023-03-07T04:51:14.137Z,75.37
2023-03-07T04:53:43.069Z,76.33
2023-03-07T04:56:09.966Z,77.70
2023-03-07T04:58:40.047Z,73.00
2023-03-07T05:01:06.864Z,74.47
2023-03-07T05:03:34.189Z,71.57
2023-03-07T05:06:05.860Z,71.30
2023-03-07T05:08:32.723Z,73.07
2023-03-07T05:11:01.700Z,70.87
2023-03-07T05:13:28.514Z,70.33
2023-03-07T05:15:58.307Z,69.67
2023-03-07T05:18:28.413Z,66.90
2023-03-07T05:20:57.451Z,71.07
2023-03-07T05:23:24.238Z,70.57
2023-03-07T05:25:53.193Z,68.63
2023-03-07T05:28:20.024Z,73.10
2023-03-07T05:30:47.124Z,67.10
2023-03-07T05:33:16.496Z,71.83
2023-03-07T05:35:43.419Z,75.47
2023-03-07T05:38:10.522Z,75.93
2023-03-07T05:40:37.379Z,81.33
2023-03-07T05:43:04.246Z,78.03
2023-03-07T05:45:31.043Z,85.57
2023-03-07T05:48:02.537Z,87.33
2023-03-07T05:50:29.312Z,84.37
2023-03-07T05:52:56.143Z,80.47
2023-03-07T05:55:23.040Z,82.73
2023-03-07T05:57:50.404Z,78.97
2023-03-07T06:00:17.717Z,80.80
2023-03-07T06:02:46.672Z,93.17
2023-03-07T06:05:14.279Z,92.93
2023-03-07T06:07:41.088Z,85.03
2023-03-07T06:10:11.854Z,85.23
2023-03-07T06:12:38.668Z,87.90
2023-03-07T06:15:05.971Z,85.87
2023-03-07T06:17:32.748Z,91.07
2023-03-07T06:20:01.731Z,89.40
2023-03-07T06:22:29.136Z,90.03
2023-03-07T06:24:58.414Z,90.73
2023-03-07T06:27:27.773Z,85.83
2023-03-07T06:29:54.552Z,77.73
2023-03-07T06:32:24.289Z,77.73
2023-03-07T06:34:51.196Z,72.10
2023-03-07T06:37:17.980Z,76.73
2023-03-07T06:39:44.823Z,78.23
2023-03-07T06:42:11.610Z,80.97
2023-03-07T06:44:42.350Z,86.60
2023-03-07T06:47:10.422Z,81.47
2023-03-07T06:49:37.354Z,80.33
2023-03-07T06:52:08.838Z,83.23
2023-03-07T06:54:35.600Z,83.90
2023-03-07T06:57:02.356Z,73.00
2023-03-07T06:59:29.127Z,73.03
2023-03-07T07:01:56.075Z,74.83
2023-03-07T07:04:25.426Z,76.47
2023-03-07T07:06:54.313Z,77.47
2023-03-07T07:09:23.417Z,77.10
2023-03-07T07:11:50.192Z,75.77
2023-03-07T07:14:16.958Z,65.37
2023-03-07T07:16:43.798Z,67.37
2023-03-07T07:19:10.601Z,64.00
2023-03-07T07:21:37.633Z,64.90
2023-03-07T07:24:04.896Z,74.00
2023-03-07T07:26:34.285Z,73.77
2023-03-07T07:29:01.076Z,71.20
2023-03-07T07:31:30.541Z,69.73
2023-03-07T07:33:57.359Z,73.77
2023-03-07T07:36:24.237Z,75.27
2023-03-07T07:38:51.036Z,74.90
2023-03-07T07:41:22.718Z,75.27
2023-03-07T07:43:52.626Z,69.07
2023-03-07T07:46:22.579Z,69.63
2023-03-07T07:48:49.546Z,70.17
2023-03-07T07:51:16.362Z,73.07
2023-03-07T07:53:43.210Z,65.77
2023-03-07T07:56:09.990Z,72.47
2023-03-07T07:58:36.753Z,70.90
2023-03-07T08:01:19.366Z,66.67
2023-03-07T08:03:46.280Z,67.27
2023-03-07T08:06:13.303Z,67.93
2023-03-07T08:08:40.070Z,67.37
2023-03-07T08:11:07.383Z,58.97
2023-03-07T08:13:34.176Z,57.77
2023-03-07T08:16:09.235Z,53.07
2023-03-07T08:18:36.046Z,54.20
2023-03-07T08:21:02.832Z,53.00
2023-03-07T08:23:29.633Z,48.37
2023-03-07T08:26:01.142Z,47.97
2023-03-07T08:28:27.946Z,46.60
2023-03-07T08:30:56.919Z,51.30
2023-03-07T08:33:26.227Z,48.53
2023-03-07T08:35:55.470Z,44.55
2023-03-07T08:38:22.287Z,46.37
2023-03-07T08:40:49.061Z,46.70
2023-03-07T08:43:15.832Z,46.37
2023-03-07T08:45:42.680Z,39.10
2023-03-07T08:48:10.215Z,44.23
2023-03-07T08:50:37.041Z,42.40
2023-03-07T08:53:03.909Z,39.27
2023-03-07T08:55:30.698Z,43.77
2023-03-07T08:57:57.483Z,44.77
2023-03-07T09:00:26.738Z,49.60
2023-03-07T09:03:01.672Z,45.00
2023-03-07T09:05:29.214Z,45.60
2023-03-07T09:07:56.140Z,45.17
2023-03-07T09:10:23.063Z,46.03
2023-03-07T09:12:52.024Z,42.53
2023-03-07T09:15:18.960Z,42.03
2023-03-07T09:17:45.750Z,45.93
2023-03-07T09:20:16.283Z,44.97
2023-03-07T09:22:43.050Z,40.03
2023-03-07T09:25:10.205Z,44.60
2023-03-07T09:27:37.044Z,46.90
2023-03-07T09:30:04.562Z,44.37
2023-03-07T09:32:34.437Z,44.33
2023-03-07T09:35:01.228Z,47.77
2023-03-07T09:37:27.998Z,44.83
2023-03-07T09:39:54.767Z,46.43
2023-03-07T09:42:34.378Z,48.00
2023-03-07T09:45:10.467Z,48.23
2023-03-07T09:47:46.300Z,47.43
2023-03-07T09:50:34.676Z,51.73
2023-03-07T09:53:03.205Z,51.17
2023-03-07T09:55:33.111Z,49.90
2023-03-07T09:58:01.250Z,49.50
2023-03-07T10:00:36.056Z,51.03
2023-03-07T10:03:35.639Z,52.33
2023-03-07T10:06:14.351Z,48.67
2023-03-07T10:08:43.223Z,49.00
2023-03-07T10:11:25.171Z,49.33
2023-03-07T10:14:18.550Z,55.83
2023-03-07T10:16:51.301Z,55.23
2023-03-07T10:19:39.547Z,53.87
2023-03-07T10:22:17.298Z,60.23
2023-03-07T10:25:16.586Z,53.83
2023-03-07T10:27:45.887Z,55.87
2023-03-07T10:30:21.061Z,57.03
2023-03-07T10:32:55.467Z,53.83
2023-03-07T10:35:32.536Z,56.97
2023-03-07T10:38:19.945Z,61.87
2023-03-07T10:40:56.421Z,56.20
2023-03-07T10:43:33.323Z,59.97
2023-03-07T10:46:23.709Z,61.70
2023-03-07T10:48:55.026Z,60.30
2023-03-07T10:51:31.284Z,62.13
2023-03-07T10:53:58.175Z,64.20
2023-03-07T10:56:24.954Z,64.83
2023-03-07T10:59:03.940Z,58.63
2023-03-07T11:01:33.597Z,62.20
2023-03-07T11:04:05.414Z,59.83
2023-03-07T11:06:51.177Z,56.83
2023-03-07T11:09:29.879Z,58.23
2023-03-07T11:12:06.480Z,64.27
2023-03-07T11:15:10.495Z,60.40
2023-03-07T11:17:47.736Z,65.27
2023-03-07T11:20:49.838Z,59.60
2023-03-07T11:23:24.663Z,64.97
2023-03-07T11:25:52.614Z,61.50
2023-03-07T11:28:33.430Z,59.90
2023-03-07T11:31:06.185Z,58.10
2023-03-07T11:34:06.476Z,62.60
2023-03-07T11:36:36.087Z,60.60
2023-03-07T11:39:18.041Z,60.33
2023-03-07T11:41:49.713Z,57.83
2023-03-07T11:44:35.702Z,60.93
2023-03-07T11:47:34.969Z,59.70
2023-03-07T11:50:19.622Z,55.40
2023-03-07T11:52:55.435Z,51.00
2023-03-07T11:55:25.356Z,57.70
2023-03-07T11:58:21.772Z,50.10
2023-03-07T12:01:18.817Z,47.47
2023-03-07T12:03:53.961Z,49.07
2023-03-07T12:06:36.310Z,49.23
2023-03-07T12:09:05.958Z,48.87
2023-03-07T12:11:47.694Z,49.40
2023-03-07T12:14:20.427Z,47.47
2023-03-07T12:17:05.618Z,48.73
2023-03-07T12:19:44.583Z,41.03
2023-03-07T12:22:46.440Z,43.40
2023-03-07T12:25:35.569Z,43.47
2023-03-07T12:28:25.954Z,45.00
2023-03-07T12:31:08.030Z,49.60
2023-03-07T12:33:48.876Z,46.70
2023-03-07T12:36:27.812Z,45.00
2023-03-07T12:39:08.958Z,50.03
2023-03-07T12:41:47.753Z,48.43
2023-03-07T12:44:21.603Z,40.93
2023-03-07T12:46:51.727Z,40.00
2023-03-07T12:49:49.705Z,41.20
2023-03-07T12:52:46.145Z,42.57
2023-03-07T12:55:28.821Z,38.67
2023-03-07T12:58:04.495Z,41.30
2023-03-07T13:00:34.843Z,40.17
2023-03-07T13:03:04.328Z,41.80
2023-03-07T13:05:31.116Z,38.83
2023-03-07T13:07:57.965Z,32.80
2023-03-07T13:10:27.687Z,34.20
2023-03-07T13:12:56.693Z,38.57
2023-03-07T13:15:25.468Z,32.73
2023-03-07T13:17:52.419Z,38.37
2023-03-07T13:20:28.398Z,34.77
2023-03-07T13:22:58.394Z,30.90
2023-03-07T13:25:49.358Z,35.90
2023-03-07T13:28:34.702Z,32.47
2023-03-07T13:31:28.244Z,34.47
2023-03-07T13:33:57.239Z,31.97
2023-03-07T13:36:35.899Z,34.13
2023-03-07T13:39:13.941Z,33.13
2023-03-07T13:41:48.213Z,32.33
2023-03-07T13:44:38.523Z,34.97
2023-03-07T13:47:25.544Z,33.67
2023-03-07T13:49:52.373Z,38.27
2023-03-07T13:52:30.340Z,31.10
2023-03-07T13:54:57.790Z,32.53
2023-03-07T13:57:27.134Z,31.97
2023-03-07T13:59:56.762Z,30.93
2023-03-07T14:02:23.585Z,37.53
2023-03-07T14:04:54.634Z,31.43
2023-03-07T14:07:28.921Z,29.67
2023-03-07T14:10:27.900Z,27.27
2023-03-07T14:13:17.067Z,26.93
2023-03-07T14:15:49.915Z,29.97
2023-03-07T14:18:16.772Z,27.23
2023-03-07T14:21:02.508Z,31.93
2023-03-07T14:24:07.237Z,30.67
2023-03-07T14:26:34.562Z,29.67
2023-03-07T14:29:03.400Z,28.00
2023-03-07T14:31:38.877Z,31.10
2023-03-07T14:34:24.540Z,28.80
2023-03-07T14:37:01.368Z,30.60
2023-03-07T14:39:55.243Z,28.13
2023-03-07T14:42:56.240Z,25.37
2023-03-07T14:45:42.190Z,24.30
2023-03-07T14:48:30.958Z,28.03
2023-03-07T14:50:59.745Z,28.23
2023-03-07T14:53:29.662Z,25.73
2023-03-07T14:56:01.635Z,24.90
2023-03-07T14:58:29.840Z,26.83
2023-03-07T15:01:11.852Z,25.27
2023-03-07T15:03:54.303Z,25.83
2023-03-07T15:06:25.939Z,25.53
2023-03-07T15:08:53.230Z,23.17
2023-03-07T15:11:33.507Z,35.27
2023-03-07T15:14:32.144Z,30.30
2023-03-07T15:17:05.092Z,29.10
2023-03-07T15:19:48.173Z,25.97
2023-03-07T15:22:25.280Z,27.73
2023-03-07T15:24:54.363Z,23.60
2023-03-07T15:27:31.483Z,20.17
2023-03-07T15:30:02.017Z,26.13
2023-03-07T15:32:37.055Z,21.27
2023-03-07T15:35:11.013Z,27.37
2023-03-07T15:37:56.972Z,22.40
2023-03-07T15:40:37.462Z,23.70
2023-03-07T15:43:04.830Z,27.73
2023-03-07T15:45:40.871Z,21.87
2023-03-07T15:48:21.788Z,22.00
2023-03-07T15:51:15.654Z,22.13
2023-03-07T15:53:44.863Z,23.67
2023-03-07T15:56:30.630Z,22.67
2023-03-07T15:59:03.005Z,22.40
2023-03-07T16:01:29.869Z,24.10
2023-03-07T16:04:01.550Z,22.23
2023-03-07T16:06:44.641Z,25.73
2023-03-07T16:09:17.351Z,27.57
2023-03-07T16:11:49.284Z,25.23
2023-03-07T16:14:30.124Z,22.27
2023-03-07T16:17:01.196Z,28.97
2023-03-07T16:19:30.581Z,22.93
2023-03-07T16:21:59.944Z,25.30
2023-03-07T16:24:26.756Z,29.90
2023-03-07T16:26:53.549Z,22.97
2023-03-07T16:29:21.871Z,24.17
2023-03-07T16:31:50.995Z,24.07
2023-03-07T16:34:19.430Z,27.07
2023-03-07T16:36:48.125Z,25.33
2023-03-07T16:39:15.278Z,26.90
2023-03-07T16:41:51.028Z,22.20
2023-03-07T16:44:22.026Z,25.57
2023-03-07T16:46:56.216Z,24.80
2023-03-07T16:49:23.355Z,24.70
2023-03-07T16:52:05.033Z,29.67
2023-03-07T16:54:32.795Z,23.83
2023-03-07T16:57:02.063Z,24.63
2023-03-07T16:59:36.020Z,26.83
2023-03-07T17:02:03.373Z,25.20
2023-03-07T17:04:30.214Z,26.83
2023-03-07T17:07:04.401Z,25.00
2023-03-07T17:09:31.877Z,28.20
2023-03-07T17:12:00.760Z,26.70
2023-03-07T17:14:27.537Z,28.17
2023-03-07T17:16:54.294Z,29.90
2023-03-07T17:19:28.592Z,27.43
2023-03-07T17:21:55.654Z,28.30
2023-03-07T17:24:24.923Z,28.13
2023-03-07T17:26:53.525Z,28.83
2023-03-07T17:29:41.447Z,26.80
2023-03-07T17:32:08.362Z,29.30
2023-03-07T17:34:35.903Z,29.97
2023-03-07T17:37:05.256Z,28.37
2023-03-07T17:39:34.834Z,26.83
2023-03-07T17:42:04.132Z,28.63
2023-03-07T17:44:30.981Z,30.17
2023-03-07T17:46:57.901Z,27.10
2023-03-07T17:49:27.430Z,30.87
2023-03-07T17:51:54.229Z,27.57
2023-03-07T17:54:21.034Z,29.67
2023-03-07T17:56:47.820Z,30.93
2023-03-07T17:59:14.654Z,27.90
2023-03-07T18:01:44.116Z,29.77
2023-03-07T18:04:11.070Z,30.37
2023-03-07T18:06:41.076Z,34.87
2023-03-07T18:09:08.003Z,27.13
2023-03-07T18:11:35.263Z,29.30
2023-03-07T18:14:02.093Z,31.33
2023-03-07T18:16:28.930Z,25.30
2023-03-07T18:19:00.045Z,29.10
2023-03-07T18:21:29.688Z,34.70
2023-03-07T18:23:56.759Z,28.47
2023-03-07T18:26:26.044Z,31.27
2023-03-07T18:28:53.817Z,33.40
2023-03-07T18:31:22.490Z,30.87
2023-03-07T18:33:52.769Z,31.73
2023-03-07T18:36:21.233Z,30.70
2023-03-07T18:38:48.205Z,26.90
2023-03-07T18:41:22.410Z,29.43
2023-03-07T18:43:51.819Z,27.17
2023-03-07T18:46:19.558Z,28.57
2023-03-07T18:48:46.605Z,31.60
2023-03-07T18:51:17.769Z,24.37
2023-03-07T18:53:44.642Z,29.67
2023-03-07T18:56:16.791Z,27.53
2023-03-07T18:58:43.805Z,26.63
2023-03-07T19:01:20.252Z,26.27
2023-03-07T19:03:50.534Z,26.80
2023-03-07T19:06:20.497Z,24.67
2023-03-07T19:08:49.799Z,23.67
2023-03-07T19:11:16.887Z,25.23
2023-03-07T19:13:43.933Z,22.07
2023-03-07T19:16:22.816Z,22.03
2023-03-07T19:18:50.167Z,22.97
2023-03-07T19:21:24.662Z,23.40
2023-03-07T19:23:52.439Z,22.27
2023-03-07T19:26:19.995Z,26.80
2023-03-07T19:28:50.531Z,23.23
2023-03-07T19:31:21.244Z,22.10
2023-03-07T19:33:50.439Z,22.10
2023-03-07T19:36:22.035Z,22.97
2023-03-07T19:38:49.816Z,23.00
2023-03-07T19:41:18.048Z,23.37
2023-03-07T19:43:47.445Z,22.70
2023-03-07T19:46:15.399Z,21.63
2023-03-07T19:48:44.071Z,21.17
2023-03-07T19:51:14.597Z,21.23
2023-03-07T19:53:42.264Z,19.67
2023-03-07T19:56:14.704Z,21.87
2023-03-07T19:58:41.549Z,20.77
2023-03-07T20:01:09.600Z,18.83
2023-03-07T20:03:38.657Z,21.03
2023-03-07T20:06:06.396Z,20.67
2023-03-07T20:08:33.750Z,25.20
2023-03-07T20:11:14.550Z,20.13
2023-03-07T20:13:45.645Z,22.63
2023-03-07T20:16:15.107Z,24.93
2023-03-07T20:18:42.086Z,22.17
2023-03-07T20:21:13.390Z,20.00
2023-03-07T20:23:42.259Z,18.00
2023-03-07T20:26:13.272Z,19.43
2023-03-07T20:28:40.203Z,21.83
2023-03-07T20:31:12.879Z,21.80
2023-03-07T20:33:40.900Z,18.10
2023-03-07T20:36:18.344Z,19.33
2023-03-07T20:38:56.524Z,18.57
2023-03-07T20:41:29.934Z,21.23
2023-03-07T20:44:04.808Z,20.83
2023-03-07T20:46:32.037Z,18.37
2023-03-07T20:48:59.866Z,19.07
2023-03-07T20:51:30.716Z,21.73
2023-03-07T20:54:01.924Z,17.23
2023-03-07T20:56:30.306Z,20.13
2023-03-07T20:58:59.955Z,16.10
2023-03-07T21:01:28.466Z,15.37
2023-03-07T21:03:55.325Z,16.63
2023-03-07T21:06:22.192Z,19.03
2023-03-07T21:08:49.187Z,16.83
2023-03-07T21:11:18.027Z,16.50
2023-03-07T21:13:48.240Z,15.80
2023-03-07T21:16:15.997Z,15.23
2023-03-07T21:18:42.897Z,17.20
2023-03-07T21:21:17.103Z,18.27
2023-03-07T21:23:46.508Z,22.67
2023-03-07T21:26:15.181Z,17.23
2023-03-07T21:28:44.134Z,16.93
2023-03-07T21:31:13.990Z,17.60
2023-03-07T21:33:41.848Z,17.67
2023-03-07T21:36:09.775Z,14.83
2023-03-07T21:38:39.887Z,14.90
2023-03-07T21:41:06.868Z,18.00
2023-03-07T21:43:36.476Z,15.83
2023-03-07T21:46:13.063Z,19.17
2023-03-07T21:48:39.954Z,15.60
2023-03-07T21:51:09.248Z,18.07
2023-03-07T21:53:38.648Z,16.00
2023-03-07T21:56:12.512Z,15.07
2023-03-07T21:58:42.388Z,17.77
2023-03-07T22:01:15.888Z,13.63
2023-03-07T22:03:42.904Z,16.63
2023-03-07T22:06:13.505Z,14.77
2023-03-07T22:08:40.622Z,14.57
2023-03-07T22:11:08.141Z,16.53
2023-03-07T22:13:36.228Z,17.93
2023-03-07T22:16:08.121Z,15.73
2023-03-07T22:18:35.198Z,15.00
2023-03-07T22:21:14.791Z,15.47
2023-03-07T22:23:42.132Z,19.53
2023-03-07T22:26:11.947Z,14.13
2023-03-07T22:28:40.598Z,13.80
2023-03-07T22:31:12.282Z,13.10
2023-03-07T22:33:39.578Z,12.13
2023-03-07T22:36:07.237Z,11.23
2023-03-07T22:38:34.240Z,11.23
2023-03-07T22:41:07.418Z,14.00
2023-03-07T22:43:34.849Z,14.57
2023-03-07T22:46:01.700Z,8.63
2023-03-07T22:48:30.809Z,9.00
2023-03-07T22:50:57.929Z,6.83
2023-03-07T22:53:27.340Z,6.20
2023-03-07T22:55:54.239Z,3.07
2023-03-07T22:58:25.523Z,3.30
2023-03-07T23:00:52.463Z,4.27
2023-03-07T23:03:19.269Z,3.47
2023-03-07T23:05:46.936Z,6.73
2023-03-07T23:08:13.991Z,4.10
2023-03-07T23:10:40.746Z,4.60
2023-03-07T23:13:09.788Z,3.20
2023-03-07T23:15:40.349Z,3.20
2023-03-07T23:18:07.169Z,4.60
2023-03-07T23:20:35.775Z,6.27
2023-03-07T23:23:05.094Z,5.43
2023-03-07T23:25:33.094Z,5.40
2023-03-07T23:28:00.001Z,4.93
2023-03-07T23:30:26.809Z,3.97
2023-03-07T23:32:56.101Z,5.33
2023-03-07T23:35:23.936Z,7.63
2023-03-07T23:37:50.817Z,5.10
2023-03-07T23:40:19.976Z,5.30
2023-03-07T23:42:48.930Z,6.13
2023-03-07T23:45:15.788Z,4.30
2023-03-07T23:47:42.607Z,5.50
2023-03-07T23:50:12.188Z,3.60
2023-03-07T23:52:38.948Z,3.53
2023-03-07T23:55:09.033Z,5.40
2023-03-07T23:57:38.554Z,3.27
